aviador You're here:

ZBYN Decoded Metar

TAIYUAN in CHINA
Report Time2017-06-27 22:00:00
UTC Time2017-06-27 22:34:15
Flight Rules vfr VFR
WindVRB at 2 kt
Visibility9999 m
Phenomena:N/A
Clouds:N/A
Expected CloudBase > 1,200 ft AGL from Temp-Dew spread
CeilingNone
Temp19°C (ISA +9)
Dew Point16°C (83% RH)
QNH1011 hPa
Density Alt3,934 ft
Elevation2,556 ft
Report Wrong Elevation
Raw Report
METAR ZBYN 272200Z VRB01MPS CAVOK 19/16 Q1011 NOSIG=

Extra information for ZBYN:More info

Metar Taf Metar & Taf Last 4 Metars F.Rules Stats Wind Profile Meteogram Temp Stats Airport Information Weather charts Add Link Nearby VenuesMetar ALERT Operation Metar Decoded Social comments